sensor_id;sensor_type;location;lat;lon;timestamp;P1;durP1;ratioP1;P2;durP2;ratioP2
39782;SDS011;25462;51.164;17.100;2022-08-04T00:03:23;5.60;;;5.10;;
39782;SDS011;25462;51.164;17.100;2022-08-04T00:08:33;8.80;;;5.90;;
39782;SDS011;25462;51.164;17.100;2022-08-04T00:13:44;6.60;;;6.10;;
39782;SDS011;25462;51.164;17.100;2022-08-04T00:19:12;7.80;;;6.90;;
39782;SDS011;25462;51.164;17.100;2022-08-04T00:24:19;6.90;;;6.20;;
39782;SDS011;25462;51.164;17.100;2022-08-04T00:29:22;7.90;;;6.60;;
39782;SDS011;25462;51.164;17.100;2022-08-04T00:34:30;9.10;;;6.60;;
39782;SDS011;25462;51.164;17.100;2022-08-04T00:39:33;6.70;;;6.20;;
39782;SDS011;25462;51.164;17.100;2022-08-04T00:55:18;7.40;;;6.80;;
39782;SDS011;25462;51.164;17.100;2022-08-04T01:00:31;10.10;;;7.60;;
39782;SDS011;25462;51.164;17.100;2022-08-04T01:16:17;9.30;;;6.30;;
39782;SDS011;25462;51.164;17.100;2022-08-04T01:32:01;8.30;;;7.20;;
39782;SDS011;25462;51.164;17.100;2022-08-04T01:42:13;7.70;;;7.00;;
39782;SDS011;25462;51.164;17.100;2022-08-04T01:47:33;7.60;;;6.90;;
39782;SDS011;25462;51.164;17.100;2022-08-04T01:52:40;8.90;;;6.60;;
39782;SDS011;25462;51.164;17.100;2022-08-04T01:57:50;8.50;;;7.50;;
39782;SDS011;25462;51.164;17.100;2022-08-04T02:02:54;7.70;;;7.00;;
39782;SDS011;25462;51.164;17.100;2022-08-04T02:18:44;7.80;;;7.00;;
39782;SDS011;25462;51.164;17.100;2022-08-04T02:24:08;8.80;;;8.00;;
39782;SDS011;25462;51.164;17.100;2022-08-04T02:29:23;7.70;;;7.10;;
39782;SDS011;25462;51.164;17.100;2022-08-04T02:40:15;9.40;;;8.50;;
39782;SDS011;25462;51.164;17.100;2022-08-04T02:45:21;9.80;;;8.00;;
39782;SDS011;25462;51.164;17.100;2022-08-04T02:50:23;10.90;;;8.10;;
39782;SDS011;25462;51.164;17.100;2022-08-04T02:55:30;10.00;;;8.90;;
39782;SDS011;25462;51.164;17.100;2022-08-04T03:00:33;9.10;;;8.20;;
39782;SDS011;25462;51.164;17.100;2022-08-04T03:11:04;10.00;;;9.10;;
39782;SDS011;25462;51.164;17.100;2022-08-04T04:00:51;10.30;;;9.50;;
39782;SDS011;25462;51.164;17.100;2022-08-04T04:06:29;10.20;;;9.30;;
39782;SDS011;25462;51.164;17.100;2022-08-04T04:11:40;13.20;;;10.00;;
39782;SDS011;25462;51.164;17.100;2022-08-04T04:17:03;9.90;;;9.00;;
39782;SDS011;25462;51.164;17.100;2022-08-04T04:33:53;9.60;;;8.60;;
39782;SDS011;25462;51.164;17.100;2022-08-04T04:49:33;8.40;;;7.40;;
39782;SDS011;25462;51.164;17.100;2022-08-04T04:54:40;7.70;;;6.80;;
39782;SDS011;25462;51.164;17.100;2022-08-04T05:00:03;7.10;;;6.20;;
39782;SDS011;25462;51.164;17.100;2022-08-04T05:16:16;11.00;;;7.50;;
39782;SDS011;25462;51.164;17.100;2022-08-04T05:26:40;9.00;;;7.30;;
39782;SDS011;25462;51.164;17.100;2022-08-04T05:31:48;7.90;;;7.20;;
39782;SDS011;25462;51.164;17.100;2022-08-04T05:36:54;12.60;;;7.00;;
39782;SDS011;25462;51.164;17.100;2022-08-04T05:41:59;10.90;;;7.10;;
39782;SDS011;25462;51.164;17.100;2022-08-04T05:47:06;8.50;;;6.80;;
39782;SDS011;25462;51.164;17.100;2022-08-04T05:52:09;7.70;;;6.90;;
39782;SDS011;25462;51.164;17.100;2022-08-04T05:57:15;9.20;;;6.80;;
39782;SDS011;25462;51.164;17.100;2022-08-04T06:02:18;8.10;;;6.20;;
39782;SDS011;25462;51.164;17.100;2022-08-04T06:07:23;7.70;;;6.00;;
39782;SDS011;25462;51.164;17.100;2022-08-04T06:12:32;9.70;;;6.10;;
39782;SDS011;25462;51.164;17.100;2022-08-04T06:17:44;6.80;;;5.70;;
39782;SDS011;25462;51.164;17.100;2022-08-04T06:23:16;7.00;;;6.40;;
39782;SDS011;25462;51.164;17.100;2022-08-04T06:28:20;7.80;;;5.90;;
39782;SDS011;25462;51.164;17.100;2022-08-04T06:33:24;6.60;;;5.80;;
39782;SDS011;25462;51.164;17.100;2022-08-04T06:39:04;6.40;;;5.80;;
39782;SDS011;25462;51.164;17.100;2022-08-04T06:44:08;9.80;;;5.80;;
39782;SDS011;25462;51.164;17.100;2022-08-04T06:49:14;6.20;;;5.50;;
39782;SDS011;25462;51.164;17.100;2022-08-04T06:54:18;8.60;;;5.60;;
39782;SDS011;25462;51.164;17.100;2022-08-04T06:59:20;6.90;;;5.50;;
39782;SDS011;25462;51.164;17.100;2022-08-04T07:04:22;6.50;;;5.90;;
39782;SDS011;25462;51.164;17.100;2022-08-04T07:09:24;9.10;;;6.20;;
39782;SDS011;25462;51.164;17.100;2022-08-04T07:14:28;7.00;;;5.80;;
39782;SDS011;25462;51.164;17.100;2022-08-04T07:19:32;7.40;;;6.70;;
39782;SDS011;25462;51.164;17.100;2022-08-04T07:24:35;10.30;;;5.90;;
39782;SDS011;25462;51.164;17.100;2022-08-04T07:29:39;12.70;;;5.90;;
39782;SDS011;25462;51.164;17.100;2022-08-04T07:34:44;6.30;;;5.70;;
39782;SDS011;25462;51.164;17.100;2022-08-04T07:39:51;5.60;;;5.00;;
39782;SDS011;25462;51.164;17.100;2022-08-04T07:45:00;8.30;;;5.70;;
39782;SDS011;25462;51.164;17.100;2022-08-04T07:50:02;10.10;;;5.70;;
39782;SDS011;25462;51.164;17.100;2022-08-04T07:55:05;5.80;;;5.10;;
39782;SDS011;25462;51.164;17.100;2022-08-04T08:00:09;7.00;;;5.70;;
39782;SDS011;25462;51.164;17.100;2022-08-04T08:05:18;9.70;;;6.20;;
39782;SDS011;25462;51.164;17.100;2022-08-04T08:10:20;7.70;;;5.70;;
39782;SDS011;25462;51.164;17.100;2022-08-04T08:15:24;6.70;;;5.90;;
39782;SDS011;25462;51.164;17.100;2022-08-04T08:20:30;6.70;;;5.60;;
39782;SDS011;25462;51.164;17.100;2022-08-04T08:25:36;5.60;;;5.10;;
39782;SDS011;25462;51.164;17.100;2022-08-04T08:30:40;5.40;;;5.00;;
39782;SDS011;25462;51.164;17.100;2022-08-04T08:40:58;4.60;;;4.20;;
39782;SDS011;25462;51.164;17.100;2022-08-04T08:51:58;6.10;;;5.20;;
39782;SDS011;25462;51.164;17.100;2022-08-04T09:03:22;5.70;;;4.90;;
39782;SDS011;25462;51.164;17.100;2022-08-04T09:08:54;5.90;;;4.70;;
39782;SDS011;25462;51.164;17.100;2022-08-04T09:14:44;6.80;;;4.50;;
39782;SDS011;25462;51.164;17.100;2022-08-04T09:25:38;6.10;;;4.00;;
39782;SDS011;25462;51.164;17.100;2022-08-04T09:30:44;3.80;;;3.50;;
39782;SDS011;25462;51.164;17.100;2022-08-04T09:36:14;4.60;;;4.20;;
39782;SDS011;25462;51.164;17.100;2022-08-04T09:41:30;5.70;;;4.40;;
39782;SDS011;25462;51.164;17.100;2022-08-04T09:46:52;5.20;;;4.20;;
39782;SDS011;25462;51.164;17.100;2022-08-04T10:02:54;4.80;;;4.40;;
39782;SDS011;25462;51.164;17.100;2022-08-04T10:08:03;4.50;;;4.20;;
39782;SDS011;25462;51.164;17.100;2022-08-04T10:29:41;4.00;;;3.60;;
39782;SDS011;25462;51.164;17.100;2022-08-04T10:46:30;4.90;;;3.80;;
39782;SDS011;25462;51.164;17.100;2022-08-04T10:51:45;6.10;;;3.80;;
39782;SDS011;25462;51.164;17.100;2022-08-04T10:57:07;4.50;;;3.20;;
39782;SDS011;25462;51.164;17.100;2022-08-04T11:07:31;4.90;;;3.70;;
39782;SDS011;25462;51.164;17.100;2022-08-04T11:12:35;5.30;;;3.50;;
39782;SDS011;25462;51.164;17.100;2022-08-04T11:17:55;5.10;;;4.00;;
39782;SDS011;25462;51.164;17.100;2022-08-04T11:23:02;6.00;;;3.90;;
39782;SDS011;25462;51.164;17.100;2022-08-04T11:28:13;7.60;;;3.70;;
39782;SDS011;25462;51.164;17.100;2022-08-04T11:43:53;4.30;;;4.00;;
39782;SDS011;25462;51.164;17.100;2022-08-04T11:49:07;4.20;;;3.90;;
39782;SDS011;25462;51.164;17.100;2022-08-04T11:54:17;4.70;;;4.40;;
39782;SDS011;25462;51.164;17.100;2022-08-04T11:59:22;4.20;;;3.70;;
39782;SDS011;25462;51.164;17.100;2022-08-04T12:04:36;4.60;;;4.30;;
39782;SDS011;25462;51.164;17.100;2022-08-04T12:15:43;5.90;;;4.60;;
39782;SDS011;25462;51.164;17.100;2022-08-04T12:21:04;8.40;;;4.20;;
39782;SDS011;25462;51.164;17.100;2022-08-04T12:26:23;3.90;;;3.60;;
39782;SDS011;25462;51.164;17.100;2022-08-04T12:36:36;4.10;;;3.70;;
39782;SDS011;25462;51.164;17.100;2022-08-04T12:41:51;4.00;;;3.70;;
39782;SDS011;25462;51.164;17.100;2022-08-04T12:46:58;5.60;;;4.00;;
39782;SDS011;25462;51.164;17.100;2022-08-04T12:52:21;4.20;;;3.80;;
39782;SDS011;25462;51.164;17.100;2022-08-04T12:57:46;3.30;;;3.00;;
39782;SDS011;25462;51.164;17.100;2022-08-04T13:02:53;3.10;;;2.90;;
39782;SDS011;25462;51.164;17.100;2022-08-04T13:08:04;2.60;;;2.50;;
39782;SDS011;25462;51.164;17.100;2022-08-04T13:13:10;2.80;;;2.60;;
39782;SDS011;25462;51.164;17.100;2022-08-04T13:18:16;2.70;;;2.50;;
39782;SDS011;25462;51.164;17.100;2022-08-04T13:23:24;2.80;;;2.60;;
39782;SDS011;25462;51.164;17.100;2022-08-04T13:28:30;2.60;;;2.30;;
39782;SDS011;25462;51.164;17.100;2022-08-04T13:33:33;4.20;;;2.70;;
39782;SDS011;25462;51.164;17.100;2022-08-04T13:44:04;3.00;;;2.80;;
39782;SDS011;25462;51.164;17.100;2022-08-04T13:49:20;3.40;;;2.90;;
39782;SDS011;25462;51.164;17.100;2022-08-04T13:54:44;2.80;;;2.60;;
39782;SDS011;25462;51.164;17.100;2022-08-04T13:59:56;3.30;;;3.00;;
39782;SDS011;25462;51.164;17.100;2022-08-04T14:05:03;3.40;;;3.20;;
39782;SDS011;25462;51.164;17.100;2022-08-04T14:10:22;3.20;;;3.00;;
39782;SDS011;25462;51.164;17.100;2022-08-04T14:15:42;4.10;;;3.30;;
39782;SDS011;25462;51.164;17.100;2022-08-04T14:21:10;3.60;;;3.30;;
39782;SDS011;25462;51.164;17.100;2022-08-04T14:26:18;3.40;;;3.20;;
39782;SDS011;25462;51.164;17.100;2022-08-04T14:31:39;4.60;;;4.00;;
39782;SDS011;25462;51.164;17.100;2022-08-04T14:37:07;3.70;;;3.40;;
39782;SDS011;25462;51.164;17.100;2022-08-04T14:42:44;5.30;;;4.10;;
39782;SDS011;25462;51.164;17.100;2022-08-04T14:48:02;4.20;;;3.50;;
39782;SDS011;25462;51.164;17.100;2022-08-04T14:53:12;4.40;;;4.00;;
39782;SDS011;25462;51.164;17.100;2022-08-04T14:58:28;5.40;;;3.70;;
39782;SDS011;25462;51.164;17.100;2022-08-04T15:03:39;4.30;;;3.80;;
39782;SDS011;25462;51.164;17.100;2022-08-04T15:08:55;4.20;;;3.90;;
39782;SDS011;25462;51.164;17.100;2022-08-04T15:14:09;4.30;;;3.90;;
39782;SDS011;25462;51.164;17.100;2022-08-04T15:19:35;3.80;;;3.50;;
39782;SDS011;25462;51.164;17.100;2022-08-04T15:24:37;5.40;;;3.50;;
39782;SDS011;25462;51.164;17.100;2022-08-04T15:29:41;4.70;;;3.90;;
39782;SDS011;25462;51.164;17.100;2022-08-04T15:35:04;7.40;;;4.00;;
39782;SDS011;25462;51.164;17.100;2022-08-04T15:40:15;4.00;;;3.70;;
39782;SDS011;25462;51.164;17.100;2022-08-04T15:46:08;6.00;;;4.20;;
39782;SDS011;25462;51.164;17.100;2022-08-04T15:51:25;4.50;;;4.20;;
39782;SDS011;25462;51.164;17.100;2022-08-04T15:56:43;5.60;;;4.60;;
39782;SDS011;25462;51.164;17.100;2022-08-04T16:02:27;3.70;;;3.40;;
39782;SDS011;25462;51.164;17.100;2022-08-04T16:12:58;6.10;;;4.10;;
39782;SDS011;25462;51.164;17.100;2022-08-04T16:18:07;4.60;;;4.20;;
39782;SDS011;25462;51.164;17.100;2022-08-04T16:28:57;4.20;;;4.00;;
39782;SDS011;25462;51.164;17.100;2022-08-04T16:33:59;4.30;;;4.00;;
39782;SDS011;25462;51.164;17.100;2022-08-04T16:39:21;4.40;;;3.80;;
39782;SDS011;25462;51.164;17.100;2022-08-04T16:44:27;3.90;;;3.60;;
39782;SDS011;25462;51.164;17.100;2022-08-04T16:50:00;3.90;;;3.60;;
39782;SDS011;25462;51.164;17.100;2022-08-04T16:55:02;8.50;;;3.90;;
39782;SDS011;25462;51.164;17.100;2022-08-04T17:00:05;4.30;;;3.80;;
39782;SDS011;25462;51.164;17.100;2022-08-04T17:05:25;4.30;;;3.40;;
39782;SDS011;25462;51.164;17.100;2022-08-04T17:10:42;4.00;;;3.60;;
39782;SDS011;25462;51.164;17.100;2022-08-04T17:15:48;3.90;;;3.50;;
39782;SDS011;25462;51.164;17.100;2022-08-04T17:20:52;4.80;;;4.00;;
39782;SDS011;25462;51.164;17.100;2022-08-04T17:26:08;5.50;;;3.20;;
39782;SDS011;25462;51.164;17.100;2022-08-04T17:31:32;4.00;;;3.50;;
39782;SDS011;25462;51.164;17.100;2022-08-04T17:36:38;3.70;;;3.50;;
39782;SDS011;25462;51.164;17.100;2022-08-04T17:41:46;6.60;;;3.90;;
39782;SDS011;25462;51.164;17.100;2022-08-04T17:46:50;4.70;;;3.80;;
39782;SDS011;25462;51.164;17.100;2022-08-04T17:51:54;4.30;;;3.60;;
39782;SDS011;25462;51.164;17.100;2022-08-04T17:57:19;7.20;;;3.90;;
39782;SDS011;25462;51.164;17.100;2022-08-04T18:02:50;4.00;;;3.50;;
39782;SDS011;25462;51.164;17.100;2022-08-04T18:07:54;4.20;;;3.80;;
39782;SDS011;25462;51.164;17.100;2022-08-04T18:13:16;5.10;;;3.90;;
39782;SDS011;25462;51.164;17.100;2022-08-04T18:18:22;7.60;;;4.40;;
39782;SDS011;25462;51.164;17.100;2022-08-04T18:23:26;4.40;;;4.00;;
39782;SDS011;25462;51.164;17.100;2022-08-04T18:28:42;6.10;;;4.30;;
39782;SDS011;25462;51.164;17.100;2022-08-04T18:33:46;7.10;;;4.90;;
39782;SDS011;25462;51.164;17.100;2022-08-04T18:39:09;4.60;;;4.20;;
39782;SDS011;25462;51.164;17.100;2022-08-04T18:44:26;7.70;;;4.30;;
39782;SDS011;25462;51.164;17.100;2022-08-04T18:49:32;5.30;;;4.20;;
39782;SDS011;25462;51.164;17.100;2022-08-04T18:54:54;6.40;;;4.80;;
39782;SDS011;25462;51.164;17.100;2022-08-04T19:00:03;5.10;;;4.60;;
39782;SDS011;25462;51.164;17.100;2022-08-04T19:05:06;5.30;;;4.80;;
39782;SDS011;25462;51.164;17.100;2022-08-04T19:10:19;5.50;;;5.00;;
39782;SDS011;25462;51.164;17.100;2022-08-04T19:15:31;12.00;;;4.60;;
39782;SDS011;25462;51.164;17.100;2022-08-04T19:20:38;5.70;;;4.30;;
39782;SDS011;25462;51.164;17.100;2022-08-04T19:25:40;5.30;;;4.80;;
39782;SDS011;25462;51.164;17.100;2022-08-04T19:31:04;5.30;;;4.80;;
39782;SDS011;25462;51.164;17.100;2022-08-04T19:36:11;6.00;;;4.80;;
39782;SDS011;25462;51.164;17.100;2022-08-04T19:41:19;9.50;;;5.40;;
39782;SDS011;25462;51.164;17.100;2022-08-04T19:46:24;5.60;;;5.10;;
39782;SDS011;25462;51.164;17.100;2022-08-04T19:51:37;5.80;;;5.00;;
39782;SDS011;25462;51.164;17.100;2022-08-04T19:56:54;5.70;;;5.10;;
39782;SDS011;25462;51.164;17.100;2022-08-04T20:01:57;7.10;;;6.20;;
39782;SDS011;25462;51.164;17.100;2022-08-04T20:07:05;6.50;;;5.40;;
39782;SDS011;25462;51.164;17.100;2022-08-04T20:12:19;9.70;;;5.80;;
39782;SDS011;25462;51.164;17.100;2022-08-04T20:17:22;6.70;;;5.80;;
39782;SDS011;25462;51.164;17.100;2022-08-04T20:22:50;5.40;;;4.90;;
39782;SDS011;25462;51.164;17.100;2022-08-04T20:28:00;8.50;;;5.40;;
39782;SDS011;25462;51.164;17.100;2022-08-04T20:33:04;5.70;;;5.30;;
39782;SDS011;25462;51.164;17.100;2022-08-04T20:38:07;6.30;;;5.20;;
39782;SDS011;25462;51.164;17.100;2022-08-04T20:43:29;6.10;;;5.60;;
39782;SDS011;25462;51.164;17.100;2022-08-04T20:48:32;6.90;;;6.30;;
39782;SDS011;25462;51.164;17.100;2022-08-04T20:53:36;7.00;;;6.50;;
39782;SDS011;25462;51.164;17.100;2022-08-04T20:58:58;8.00;;;6.20;;
39782;SDS011;25462;51.164;17.100;2022-08-04T21:04:09;6.70;;;6.10;;
39782;SDS011;25462;51.164;17.100;2022-08-04T21:09:30;7.60;;;6.10;;
39782;SDS011;25462;51.164;17.100;2022-08-04T21:14:43;7.00;;;6.30;;
39782;SDS011;25462;51.164;17.100;2022-08-04T21:19:48;6.60;;;6.00;;
39782;SDS011;25462;51.164;17.100;2022-08-04T21:24:51;7.10;;;6.50;;
39782;SDS011;25462;51.164;17.100;2022-08-04T21:29:55;6.80;;;6.10;;
39782;SDS011;25462;51.164;17.100;2022-08-04T21:35:01;8.60;;;5.40;;
39782;SDS011;25462;51.164;17.100;2022-08-04T21:40:11;7.30;;;6.10;;
39782;SDS011;25462;51.164;17.100;2022-08-04T21:45:36;7.70;;;5.90;;
39782;SDS011;25462;51.164;17.100;2022-08-04T21:50:45;6.60;;;6.00;;
39782;SDS011;25462;51.164;17.100;2022-08-04T21:55:51;7.30;;;6.60;;
39782;SDS011;25462;51.164;17.100;2022-08-04T22:01:09;7.20;;;6.10;;
39782;SDS011;25462;51.164;17.100;2022-08-04T22:06:17;7.10;;;6.00;;
39782;SDS011;25462;51.164;17.100;2022-08-04T22:11:25;6.40;;;5.90;;
39782;SDS011;25462;51.164;17.100;2022-08-04T22:16:51;8.20;;;5.80;;
39782;SDS011;25462;51.164;17.100;2022-08-04T22:21:57;6.50;;;5.90;;
39782;SDS011;25462;51.164;17.100;2022-08-04T22:26:59;7.60;;;6.40;;
39782;SDS011;25462;51.164;17.100;2022-08-04T22:32:02;8.30;;;6.20;;
39782;SDS011;25462;51.164;17.100;2022-08-04T22:37:04;8.10;;;5.70;;
39782;SDS011;25462;51.164;17.100;2022-08-04T22:42:13;7.40;;;5.80;;
39782;SDS011;25462;51.164;17.100;2022-08-04T22:47:15;7.10;;;6.50;;
39782;SDS011;25462;51.164;17.100;2022-08-04T22:52:24;5.90;;;5.40;;
39782;SDS011;25462;51.164;17.100;2022-08-04T22:57:30;6.20;;;5.70;;
39782;SDS011;25462;51.164;17.100;2022-08-04T23:07:54;6.30;;;5.30;;
39782;SDS011;25462;51.164;17.100;2022-08-04T23:12:57;8.80;;;5.70;;
39782;SDS011;25462;51.164;17.100;2022-08-04T23:18:05;5.80;;;5.20;;
39782;SDS011;25462;51.164;17.100;2022-08-04T23:23:08;7.70;;;5.90;;
39782;SDS011;25462;51.164;17.100;2022-08-04T23:28:16;8.60;;;5.10;;
39782;SDS011;25462;51.164;17.100;2022-08-04T23:33:18;5.90;;;5.40;;
39782;SDS011;25462;51.164;17.100;2022-08-04T23:38:23;9.90;;;6.40;;
39782;SDS011;25462;51.164;17.100;2022-08-04T23:43:32;6.40;;;5.70;;
39782;SDS011;25462;51.164;17.100;2022-08-04T23:48:54;8.90;;;6.10;;
39782;SDS011;25462;51.164;17.100;2022-08-04T23:53:58;6.40;;;5.90;;
39782;SDS011;25462;51.164;17.100;2022-08-04T23:59:04;7.10;;;6.40;;
